Jump to content

  •  

JETBLUE FLIGHT B6121 FLOWN ON 05-30-2017 BY CAPTAIN JIM BOERMAN

Pilot StatsCaptain Jim Boerman (LDP136) • 4,686.4 total hours • 1,423 total flights [View Logbook]
FLIGHT DETAILS
StatusReceived and approved on 2017-05-30 at 12:05:05
Origin AirportLogan Intl (KBOS) • Boston, Massachusetts, United States (19 feet MSL)
Filed Flight PlanFLIGHT PLANNER OFFLINE
Destination AirportPalm Beach Intl (KPBI) • West Palm Beach, Florida, United States (19 feet MSL)
Alternate AirportMiami Intl (KMIA) • Miami, Florida, United States (8 feet MSL)
AirlineJetBlue
AircraftAirbus A320 (320 / A320)
FS Aircraft UsedFeelthere A320 IAE Airbus JetBlue "Blues Brothers"
Cruising AltitudeFL360
Distance Flown1,041 nautical miles
Passengers Onboard124 passengers (82.67% full)
DEPARTURE DETAILS
Time Out08:40:07
Taxi Data156,488 lbs total with 23,402 lbs of fuel onboard
Takeoff Data08:51:53 (12 minutes after leaving gate/ramp) • 155,526 lbs total • 10° pitch at 157 knots
Departure METARKBOS 301154Z 13003KT 10SM BKN007 OVC030 11/09 A3021 RMK AO2 SLP230 70005 T01060094 10106 20094 51014
ARRIVAL DETAILS
Landing Data11:49:56 • 138,803 lbs total • 5° pitch doing 134 knots at a rate of -89.20 feet/minute with 5,209 lbs of fuel onboard
Time In11:56:59 (7 minutes after landing)
Ramp Weight138,295 lbs total
Total Fuel Used18,193 lbs
Total Block Time03:12:11 (3.2 hours) while 19 minutes were spent on the ground
Arrival METARKPBI 301553Z 13009KT 10SM SCT032 SCT050 BKN250 31/22 A3013 RMK AO2 SLP202 T03110217
MISCELLANEOUS DETAILS
LiveDISPATCH Version4.8.3.1
FS Version
FSUIPC Version4.93
OS VersionWindows 7 32-bit
Screen Resolution1920 x 1080
Pilot's CommentsNo Comments Reported
FLIGHT MAP